Mopti, Mali
Current Conditions -  °F | °C
As of 1:00 PM on Friday 31 Oct 2014 (Local Time) from DFOO Reporting Station
Broken Clouds Broken Clouds  
Wind Chill: 91°   Ceiling: 26000
Heat Index: 98°   Visibility: 6mi
Dew Point: 72°   Wind: 7mph
Humidity: 52%   Direction: 240°WSW
Pressure: 29.88"   Gusts: NA
Location:  14.49°N, 4.18°W
Report Text: DFOO 311300Z 24006KT 9999 FEW020 BKN260 33/22 Q1012
Loading
Personal Weather Stations






























Interactive Weather Map
Tropical Storm Tracking
New forecast layout! Learn more

10-Day Weather Forecast

Advertisements
Track Severe Weather on mobile